sensor_id;sensor_type;location;lat;lon;timestamp;P1;durP1;ratioP1;P2;durP2;ratioP2
13477;SDS011;12598;62.382;17.344;2022-10-16T00:00:57;2.20;;;1.00;;
13477;SDS011;12598;62.382;17.344;2022-10-16T00:01:59;0.98;;;0.88;;
13477;SDS011;12598;62.382;17.344;2022-10-16T00:03:02;1.08;;;1.02;;
13477;SDS011;12598;62.382;17.344;2022-10-16T00:04:04;1.08;;;0.70;;
13477;SDS011;12598;62.382;17.344;2022-10-16T00:05:06;1.00;;;0.80;;
13477;SDS011;12598;62.382;17.344;2022-10-16T00:06:08;2.00;;;0.93;;
13477;SDS011;12598;62.382;17.344;2022-10-16T00:07:11;1.23;;;0.85;;
13477;SDS011;12598;62.382;17.344;2022-10-16T00:08:13;1.00;;;0.90;;
13477;SDS011;12598;62.382;17.344;2022-10-16T00:09:14;0.88;;;0.80;;
13477;SDS011;12598;62.382;17.344;2022-10-16T00:10:16;0.93;;;0.80;;
13477;SDS011;12598;62.382;17.344;2022-10-16T00:11:22;2.90;;;1.08;;
13477;SDS011;12598;62.382;17.344;2022-10-16T00:12:25;0.88;;;0.77;;
13477;SDS011;12598;62.382;17.344;2022-10-16T00:13:28;1.10;;;0.80;;
13477;SDS011;12598;62.382;17.344;2022-10-16T00:14:30;1.30;;;0.70;;
13477;SDS011;12598;62.382;17.344;2022-10-16T00:15:38;1.35;;;0.85;;
13477;SDS011;12598;62.382;17.344;2022-10-16T00:16:40;1.10;;;0.60;;
13477;SDS011;12598;62.382;17.344;2022-10-16T00:17:43;1.33;;;0.52;;
13477;SDS011;12598;62.382;17.344;2022-10-16T00:18:45;1.05;;;0.82;;
13477;SDS011;12598;62.382;17.344;2022-10-16T00:19:46;0.73;;;0.70;;
13477;SDS011;12598;62.382;17.344;2022-10-16T00:20:48;0.95;;;0.57;;
13477;SDS011;12598;62.382;17.344;2022-10-16T00:21:50;1.05;;;0.70;;
13477;SDS011;12598;62.382;17.344;2022-10-16T00:22:52;1.58;;;0.80;;
13477;SDS011;12598;62.382;17.344;2022-10-16T00:23:55;3.22;;;0.73;;
13477;SDS011;12598;62.382;17.344;2022-10-16T00:24:59;1.27;;;0.60;;
13477;SDS011;12598;62.382;17.344;2022-10-16T00:26:02;1.10;;;0.60;;
13477;SDS011;12598;62.382;17.344;2022-10-16T00:27:06;1.10;;;0.60;;
13477;SDS011;12598;62.382;17.344;2022-10-16T00:28:07;0.70;;;0.30;;
13477;SDS011;12598;62.382;17.344;2022-10-16T00:29:09;1.10;;;0.63;;
13477;SDS011;12598;62.382;17.344;2022-10-16T00:30:12;1.15;;;0.80;;
13477;SDS011;12598;62.382;17.344;2022-10-16T00:31:14;0.73;;;0.60;;
13477;SDS011;12598;62.382;17.344;2022-10-16T00:32:18;1.02;;;0.70;;
13477;SDS011;12598;62.382;17.344;2022-10-16T00:33:23;0.82;;;0.55;;
13477;SDS011;12598;62.382;17.344;2022-10-16T00:34:25;1.00;;;0.63;;
13477;SDS011;12598;62.382;17.344;2022-10-16T00:35:27;1.48;;;0.60;;
13477;SDS011;12598;62.382;17.344;2022-10-16T00:36:30;0.82;;;0.75;;
13477;SDS011;12598;62.382;17.344;2022-10-16T00:37:33;0.85;;;0.70;;
13477;SDS011;12598;62.382;17.344;2022-10-16T00:38:35;0.73;;;0.50;;
13477;SDS011;12598;62.382;17.344;2022-10-16T00:39:36;1.58;;;0.70;;
13477;SDS011;12598;62.382;17.344;2022-10-16T00:40:39;1.95;;;0.95;;
13477;SDS011;12598;62.382;17.344;2022-10-16T00:41:41;0.93;;;0.70;;
13477;SDS011;12598;62.382;17.344;2022-10-16T00:42:42;0.98;;;0.60;;
13477;SDS011;12598;62.382;17.344;2022-10-16T00:43:48;2.28;;;0.52;;
13477;SDS011;12598;62.382;17.344;2022-10-16T00:44:55;0.95;;;0.50;;
13477;SDS011;12598;62.382;17.344;2022-10-16T00:45:58;1.08;;;0.50;;
13477;SDS011;12598;62.382;17.344;2022-10-16T00:47:04;0.95;;;0.40;;
13477;SDS011;12598;62.382;17.344;2022-10-16T00:48:07;3.05;;;0.63;;
13477;SDS011;12598;62.382;17.344;2022-10-16T00:49:15;0.60;;;0.38;;
13477;SDS011;12598;62.382;17.344;2022-10-16T00:52:53;0.80;;;0.40;;
13477;SDS011;12598;62.382;17.344;2022-10-16T00:53:57;0.65;;;0.40;;
13477;SDS011;12598;62.382;17.344;2022-10-16T00:54:59;1.80;;;0.50;;
13477;SDS011;12598;62.382;17.344;2022-10-16T00:56:02;0.50;;;0.45;;
13477;SDS011;12598;62.382;17.344;2022-10-16T00:57:05;0.85;;;0.30;;
13477;SDS011;12598;62.382;17.344;2022-10-16T00:58:08;0.47;;;0.30;;
13477;SDS011;12598;62.382;17.344;2022-10-16T00:59:15;0.93;;;0.40;;
13477;SDS011;12598;62.382;17.344;2022-10-16T01:00:22;0.88;;;0.40;;
13477;SDS011;12598;62.382;17.344;2022-10-16T01:01:25;1.17;;;0.50;;
13477;SDS011;12598;62.382;17.344;2022-10-16T01:02:27;0.40;;;0.35;;
13477;SDS011;12598;62.382;17.344;2022-10-16T01:03:33;0.55;;;0.30;;
13477;SDS011;12598;62.382;17.344;2022-10-16T01:04:47;1.30;;;0.40;;
13477;SDS011;12598;62.382;17.344;2022-10-16T01:05:55;0.20;;;0.20;;
13477;SDS011;12598;62.382;17.344;2022-10-16T01:08:44;0.60;;;0.30;;
13477;SDS011;12598;62.382;17.344;2022-10-16T01:11:14;0.82;;;0.30;;
13477;SDS011;12598;62.382;17.344;2022-10-16T01:13:50;0.20;;;0.20;;
13477;SDS011;12598;62.382;17.344;2022-10-16T01:14:58;0.50;;;0.30;;
13477;SDS011;12598;62.382;17.344;2022-10-16T01:17:28;0.35;;;0.15;;
13477;SDS011;12598;62.382;17.344;2022-10-16T01:18:37;1.10;;;0.30;;
13477;SDS011;12598;62.382;17.344;2022-10-16T01:21:16;0.35;;;0.25;;
13477;SDS011;12598;62.382;17.344;2022-10-16T01:22:25;1.00;;;0.20;;
13477;SDS011;12598;62.382;17.344;2022-10-16T01:23:59;0.50;;;0.25;;
13477;SDS011;12598;62.382;17.344;2022-10-16T01:25:09;1.30;;;0.22;;
13477;SDS011;12598;62.382;17.344;2022-10-16T01:27:48;0.20;;;0.10;;
13477;SDS011;12598;62.382;17.344;2022-10-16T01:28:54;0.30;;;0.20;;
13477;SDS011;12598;62.382;17.344;2022-10-16T01:30:07;0.60;;;0.20;;
13477;SDS011;12598;62.382;17.344;2022-10-16T01:31:16;1.30;;;0.30;;
13477;SDS011;12598;62.382;17.344;2022-10-16T01:33:36;0.73;;;0.13;;
13477;SDS011;12598;62.382;17.344;2022-10-16T01:34:53;0.30;;;0.20;;
13477;SDS011;12598;62.382;17.344;2022-10-16T01:36:02;0.25;;;0.25;;
13477;SDS011;12598;62.382;17.344;2022-10-16T01:37:12;0.82;;;0.20;;
13477;SDS011;12598;62.382;17.344;2022-10-16T01:38:18;0.25;;;0.15;;
13477;SDS011;12598;62.382;17.344;2022-10-16T01:39:26;0.63;;;0.10;;
13477;SDS011;12598;62.382;17.344;2022-10-16T01:40:34;0.17;;;0.15;;
13477;SDS011;12598;62.382;17.344;2022-10-16T01:41:41;0.25;;;0.13;;
13477;SDS011;12598;62.382;17.344;2022-10-16T01:42:47;0.30;;;0.22;;
13477;SDS011;12598;62.382;17.344;2022-10-16T01:44:04;2.05;;;0.30;;
13477;SDS011;12598;62.382;17.344;2022-10-16T01:45:11;0.70;;;0.20;;
13477;SDS011;12598;62.382;17.344;2022-10-16T01:46:17;0.30;;;0.20;;
13477;SDS011;12598;62.382;17.344;2022-10-16T01:47:22;0.30;;;0.20;;
13477;SDS011;12598;62.382;17.344;2022-10-16T01:48:27;1.88;;;0.40;;
13477;SDS011;12598;62.382;17.344;2022-10-16T01:49:32;0.47;;;0.30;;
13477;SDS011;12598;62.382;17.344;2022-10-16T01:50:37;0.28;;;0.20;;
13477;SDS011;12598;62.382;17.344;2022-10-16T01:51:41;0.82;;;0.22;;
13477;SDS011;12598;62.382;17.344;2022-10-16T01:52:48;0.52;;;0.20;;
13477;SDS011;12598;62.382;17.344;2022-10-16T01:53:53;1.58;;;0.52;;
13477;SDS011;12598;62.382;17.344;2022-10-16T01:54:58;0.40;;;0.10;;
13477;SDS011;12598;62.382;17.344;2022-10-16T01:56:04;0.20;;;0.20;;
13477;SDS011;12598;62.382;17.344;2022-10-16T01:57:11;1.10;;;0.30;;
13477;SDS011;12598;62.382;17.344;2022-10-16T01:58:14;1.20;;;0.25;;
13477;SDS011;12598;62.382;17.344;2022-10-16T01:59:17;0.32;;;0.30;;
13477;SDS011;12598;62.382;17.344;2022-10-16T02:00:21;0.30;;;0.30;;
13477;SDS011;12598;62.382;17.344;2022-10-16T02:01:25;0.55;;;0.17;;
13477;SDS011;12598;62.382;17.344;2022-10-16T02:02:30;0.57;;;0.20;;
13477;SDS011;12598;62.382;17.344;2022-10-16T02:03:32;0.20;;;0.15;;
13477;SDS011;12598;62.382;17.344;2022-10-16T02:04:43;0.40;;;0.30;;
13477;SDS011;12598;62.382;17.344;2022-10-16T02:05:49;1.08;;;0.30;;
13477;SDS011;12598;62.382;17.344;2022-10-16T02:07:00;0.30;;;0.20;;
13477;SDS011;12598;62.382;17.344;2022-10-16T02:08:02;0.50;;;0.22;;
13477;SDS011;12598;62.382;17.344;2022-10-16T02:09:06;0.75;;;0.13;;
13477;SDS011;12598;62.382;17.344;2022-10-16T02:10:08;1.13;;;0.20;;
13477;SDS011;12598;62.382;17.344;2022-10-16T02:11:11;0.70;;;0.20;;
13477;SDS011;12598;62.382;17.344;2022-10-16T02:12:30;0.63;;;0.20;;
13477;SDS011;12598;62.382;17.344;2022-10-16T02:13:36;0.47;;;0.30;;
13477;SDS011;12598;62.382;17.344;2022-10-16T02:14:40;0.25;;;0.20;;
13477;SDS011;12598;62.382;17.344;2022-10-16T02:15:42;0.65;;;0.20;;
13477;SDS011;12598;62.382;17.344;2022-10-16T02:16:45;0.63;;;0.20;;
13477;SDS011;12598;62.382;17.344;2022-10-16T02:17:47;1.00;;;0.30;;
13477;SDS011;12598;62.382;17.344;2022-10-16T02:18:49;0.40;;;0.30;;
13477;SDS011;12598;62.382;17.344;2022-10-16T02:19:52;0.38;;;0.20;;
13477;SDS011;12598;62.382;17.344;2022-10-16T02:21:01;0.30;;;0.20;;
13477;SDS011;12598;62.382;17.344;2022-10-16T02:22:04;1.80;;;0.38;;
13477;SDS011;12598;62.382;17.344;2022-10-16T02:23:10;1.15;;;0.30;;
13477;SDS011;12598;62.382;17.344;2022-10-16T02:24:33;1.08;;;0.40;;
13477;SDS011;12598;62.382;17.344;2022-10-16T02:25:36;0.60;;;0.13;;
13477;SDS011;12598;62.382;17.344;2022-10-16T02:28:08;0.80;;;0.38;;
13477;SDS011;12598;62.382;17.344;2022-10-16T02:29:24;0.40;;;0.30;;
13477;SDS011;12598;62.382;17.344;2022-10-16T02:30:39;0.45;;;0.25;;
13477;SDS011;12598;62.382;17.344;2022-10-16T02:31:43;0.45;;;0.30;;
13477;SDS011;12598;62.382;17.344;2022-10-16T02:32:49;0.82;;;0.40;;
13477;SDS011;12598;62.382;17.344;2022-10-16T02:33:53;0.50;;;0.30;;
13477;SDS011;12598;62.382;17.344;2022-10-16T02:34:59;0.43;;;0.38;;
13477;SDS011;12598;62.382;17.344;2022-10-16T02:36:02;0.55;;;0.30;;
13477;SDS011;12598;62.382;17.344;2022-10-16T02:37:04;0.68;;;0.40;;
13477;SDS011;12598;62.382;17.344;2022-10-16T02:38:07;2.45;;;0.45;;
13477;SDS011;12598;62.382;17.344;2022-10-16T02:39:15;1.50;;;0.32;;
13477;SDS011;12598;62.382;17.344;2022-10-16T02:40:19;0.60;;;0.30;;
13477;SDS011;12598;62.382;17.344;2022-10-16T02:41:25;0.40;;;0.20;;
13477;SDS011;12598;62.382;17.344;2022-10-16T02:42:28;0.90;;;0.20;;
13477;SDS011;12598;62.382;17.344;2022-10-16T02:43:41;3.88;;;0.40;;
13477;SDS011;12598;62.382;17.344;2022-10-16T02:44:42;0.30;;;0.30;;
13477;SDS011;12598;62.382;17.344;2022-10-16T02:45:44;0.60;;;0.40;;
13477;SDS011;12598;62.382;17.344;2022-10-16T02:46:46;0.90;;;0.30;;
13477;SDS011;12598;62.382;17.344;2022-10-16T02:47:48;0.68;;;0.32;;
13477;SDS011;12598;62.382;17.344;2022-10-16T02:48:50;0.73;;;0.22;;
13477;SDS011;12598;62.382;17.344;2022-10-16T02:49:52;0.47;;;0.30;;
13477;SDS011;12598;62.382;17.344;2022-10-16T02:50:53;2.05;;;0.43;;
13477;SDS011;12598;62.382;17.344;2022-10-16T02:51:55;0.40;;;0.25;;
13477;SDS011;12598;62.382;17.344;2022-10-16T02:52:57;1.65;;;0.30;;
13477;SDS011;12598;62.382;17.344;2022-10-16T02:53:59;0.40;;;0.30;;
13477;SDS011;12598;62.382;17.344;2022-10-16T02:55:00;0.50;;;0.40;;
13477;SDS011;12598;62.382;17.344;2022-10-16T02:56:02;0.32;;;0.22;;
13477;SDS011;12598;62.382;17.344;2022-10-16T02:57:04;0.50;;;0.35;;
13477;SDS011;12598;62.382;17.344;2022-10-16T02:58:06;0.20;;;0.20;;
13477;SDS011;12598;62.382;17.344;2022-10-16T02:59:08;1.60;;;0.40;;
13477;SDS011;12598;62.382;17.344;2022-10-16T03:00:11;0.50;;;0.30;;
13477;SDS011;12598;62.382;17.344;2022-10-16T03:01:16;1.08;;;0.35;;
13477;SDS011;12598;62.382;17.344;2022-10-16T03:02:18;0.32;;;0.30;;
13477;SDS011;12598;62.382;17.344;2022-10-16T03:03:20;0.40;;;0.30;;
13477;SDS011;12598;62.382;17.344;2022-10-16T03:04:21;1.30;;;0.40;;
13477;SDS011;12598;62.382;17.344;2022-10-16T03:05:23;2.08;;;0.30;;
13477;SDS011;12598;62.382;17.344;2022-10-16T03:06:25;0.70;;;0.50;;
13477;SDS011;12598;62.382;17.344;2022-10-16T03:07:27;0.47;;;0.30;;
13477;SDS011;12598;62.382;17.344;2022-10-16T03:08:29;0.70;;;0.45;;
13477;SDS011;12598;62.382;17.344;2022-10-16T03:09:31;0.70;;;0.30;;
13477;SDS011;12598;62.382;17.344;2022-10-16T03:10:33;1.13;;;0.20;;
13477;SDS011;12598;62.382;17.344;2022-10-16T03:11:34;1.85;;;0.60;;
13477;SDS011;12598;62.382;17.344;2022-10-16T03:12:36;0.40;;;0.30;;
13477;SDS011;12598;62.382;17.344;2022-10-16T03:13:38;0.65;;;0.30;;
13477;SDS011;12598;62.382;17.344;2022-10-16T03:14:40;0.52;;;0.40;;
13477;SDS011;12598;62.382;17.344;2022-10-16T03:15:41;0.93;;;0.68;;
13477;SDS011;12598;62.382;17.344;2022-10-16T03:16:43;0.77;;;0.28;;
13477;SDS011;12598;62.382;17.344;2022-10-16T03:17:45;0.38;;;0.20;;
13477;SDS011;12598;62.382;17.344;2022-10-16T03:18:49;0.30;;;0.28;;
13477;SDS011;12598;62.382;17.344;2022-10-16T03:19:51;0.80;;;0.50;;
13477;SDS011;12598;62.382;17.344;2022-10-16T03:20:53;0.60;;;0.30;;
13477;SDS011;12598;62.382;17.344;2022-10-16T03:21:55;0.40;;;0.35;;
13477;SDS011;12598;62.382;17.344;2022-10-16T03:22:56;0.90;;;0.30;;
13477;SDS011;12598;62.382;17.344;2022-10-16T03:23:58;0.60;;;0.30;;
13477;SDS011;12598;62.382;17.344;2022-10-16T03:25:00;0.68;;;0.30;;
13477;SDS011;12598;62.382;17.344;2022-10-16T03:26:02;1.15;;;0.35;;
13477;SDS011;12598;62.382;17.344;2022-10-16T03:27:03;0.55;;;0.45;;
13477;SDS011;12598;62.382;17.344;2022-10-16T03:28:05;0.32;;;0.25;;
13477;SDS011;12598;62.382;17.344;2022-10-16T03:29:07;0.32;;;0.32;;
13477;SDS011;12598;62.382;17.344;2022-10-16T03:30:09;0.47;;;0.30;;
13477;SDS011;12598;62.382;17.344;2022-10-16T03:31:11;1.05;;;0.38;;
13477;SDS011;12598;62.382;17.344;2022-10-16T03:32:13;0.40;;;0.30;;
13477;SDS011;12598;62.382;17.344;2022-10-16T03:33:15;0.90;;;0.50;;
13477;SDS011;12598;62.382;17.344;2022-10-16T03:34:17;0.40;;;0.20;;
13477;SDS011;12598;62.382;17.344;2022-10-16T03:35:18;0.98;;;0.40;;
13477;SDS011;12598;62.382;17.344;2022-10-16T03:36:24;1.42;;;0.30;;
13477;SDS011;12598;62.382;17.344;2022-10-16T03:37:26;0.38;;;0.22;;
13477;SDS011;12598;62.382;17.344;2022-10-16T03:38:28;0.43;;;0.35;;
13477;SDS011;12598;62.382;17.344;2022-10-16T03:39:30;0.73;;;0.30;;
13477;SDS011;12598;62.382;17.344;2022-10-16T03:40:32;1.33;;;0.45;;
13477;SDS011;12598;62.382;17.344;2022-10-16T03:41:34;0.60;;;0.50;;
13477;SDS011;12598;62.382;17.344;2022-10-16T03:42:35;0.85;;;0.47;;
13477;SDS011;12598;62.382;17.344;2022-10-16T03:43:37;0.47;;;0.38;;
13477;SDS011;12598;62.382;17.344;2022-10-16T03:44:39;2.15;;;0.50;;
13477;SDS011;12598;62.382;17.344;2022-10-16T03:45:41;1.05;;;0.30;;
13477;SDS011;12598;62.382;17.344;2022-10-16T03:46:43;0.35;;;0.30;;
13477;SDS011;12598;62.382;17.344;2022-10-16T03:47:44;1.20;;;0.40;;
13477;SDS011;12598;62.382;17.344;2022-10-16T03:48:46;0.60;;;0.50;;
13477;SDS011;12598;62.382;17.344;2022-10-16T03:49:48;0.47;;;0.30;;
13477;SDS011;12598;62.382;17.344;2022-10-16T03:50:50;0.80;;;0.40;;
13477;SDS011;12598;62.382;17.344;2022-10-16T03:51:52;0.70;;;0.50;;
13477;SDS011;12598;62.382;17.344;2022-10-16T03:52:54;0.50;;;0.50;;
13477;SDS011;12598;62.382;17.344;2022-10-16T03:53:56;0.50;;;0.50;;
13477;SDS011;12598;62.382;17.344;2022-10-16T03:54:58;0.60;;;0.60;;
13477;SDS011;12598;62.382;17.344;2022-10-16T03:56:00;0.50;;;0.40;;
13477;SDS011;12598;62.382;17.344;2022-10-16T03:57:02;0.60;;;0.47;;
13477;SDS011;12598;62.382;17.344;2022-10-16T03:58:03;0.60;;;0.50;;
13477;SDS011;12598;62.382;17.344;2022-10-16T03:59:05;0.73;;;0.50;;
13477;SDS011;12598;62.382;17.344;2022-10-16T04:00:07;0.50;;;0.50;;
13477;SDS011;12598;62.382;17.344;2022-10-16T04:01:12;0.82;;;0.82;;
13477;SDS011;12598;62.382;17.344;2022-10-16T04:02:14;0.50;;;0.50;;
13477;SDS011;12598;62.382;17.344;2022-10-16T04:03:16;0.55;;;0.55;;
13477;SDS011;12598;62.382;17.344;2022-10-16T04:04:20;0.88;;;0.65;;
13477;SDS011;12598;62.382;17.344;2022-10-16T04:05:21;0.80;;;0.68;;
13477;SDS011;12598;62.382;17.344;2022-10-16T04:06:23;0.85;;;0.50;;
13477;SDS011;12598;62.382;17.344;2022-10-16T04:07:25;1.63;;;0.73;;
13477;SDS011;12598;62.382;17.344;2022-10-16T04:08:27;0.85;;;0.50;;
13477;SDS011;12598;62.382;17.344;2022-10-16T04:09:29;0.68;;;0.65;;
13477;SDS011;12598;62.382;17.344;2022-10-16T04:10:31;0.75;;;0.70;;
13477;SDS011;12598;62.382;17.344;2022-10-16T04:11:33;0.90;;;0.70;;
13477;SDS011;12598;62.382;17.344;2022-10-16T04:12:35;0.95;;;0.60;;
13477;SDS011;12598;62.382;17.344;2022-10-16T04:13:36;0.65;;;0.55;;
13477;SDS011;12598;62.382;17.344;2022-10-16T04:14:38;0.60;;;0.60;;
13477;SDS011;12598;62.382;17.344;2022-10-16T04:15:40;0.73;;;0.65;;
13477;SDS011;12598;62.382;17.344;2022-10-16T04:16:42;1.00;;;0.90;;
13477;SDS011;12598;62.382;17.344;2022-10-16T04:17:44;1.42;;;0.50;;
13477;SDS011;12598;62.382;17.344;2022-10-16T04:18:45;1.50;;;0.80;;
13477;SDS011;12598;62.382;17.344;2022-10-16T04:19:47;0.60;;;0.60;;
13477;SDS011;12598;62.382;17.344;2022-10-16T04:20:49;0.52;;;0.50;;
13477;SDS011;12598;62.382;17.344;2022-10-16T04:21:50;1.15;;;0.60;;
13477;SDS011;12598;62.382;17.344;2022-10-16T04:22:52;0.70;;;0.50;;
13477;SDS011;12598;62.382;17.344;2022-10-16T04:23:54;1.05;;;0.60;;
13477;SDS011;12598;62.382;17.344;2022-10-16T04:24:56;2.00;;;0.70;;
13477;SDS011;12598;62.382;17.344;2022-10-16T04:25:58;1.17;;;0.50;;
13477;SDS011;12598;62.382;17.344;2022-10-16T04:27:00;0.95;;;0.70;;
13477;SDS011;12598;62.382;17.344;2022-10-16T04:28:02;0.60;;;0.60;;
13477;SDS011;12598;62.382;17.344;2022-10-16T04:29:04;0.68;;;0.57;;
13477;SDS011;12598;62.382;17.344;2022-10-16T04:30:06;1.40;;;0.60;;
13477;SDS011;12598;62.382;17.344;2022-10-16T04:31:08;2.15;;;0.60;;
13477;SDS011;12598;62.382;17.344;2022-10-16T04:32:10;0.90;;;0.50;;
13477;SDS011;12598;62.382;17.344;2022-10-16T04:33:12;0.63;;;0.60;;
13477;SDS011;12598;62.382;17.344;2022-10-16T04:34:14;1.13;;;0.50;;
13477;SDS011;12598;62.382;17.344;2022-10-16T04:35:19;1.38;;;0.40;;
13477;SDS011;12598;62.382;17.344;2022-10-16T04:36:22;0.52;;;0.52;;
13477;SDS011;12598;62.382;17.344;2022-10-16T04:37:29;1.00;;;0.70;;
13477;SDS011;12598;62.382;17.344;2022-10-16T04:38:31;1.00;;;0.55;;
13477;SDS011;12598;62.382;17.344;2022-10-16T04:39:33;0.70;;;0.70;;
13477;SDS011;12598;62.382;17.344;2022-10-16T04:40:34;0.68;;;0.52;;
13477;SDS011;12598;62.382;17.344;2022-10-16T04:41:39;0.47;;;0.30;;
13477;SDS011;12598;62.382;17.344;2022-10-16T04:42:40;2.05;;;0.70;;
13477;SDS011;12598;62.382;17.344;2022-10-16T04:43:42;2.08;;;0.60;;
13477;SDS011;12598;62.382;17.344;2022-10-16T04:44:44;1.00;;;0.57;;
13477;SDS011;12598;62.382;17.344;2022-10-16T04:45:46;0.85;;;0.70;;
13477;SDS011;12598;62.382;17.344;2022-10-16T04:46:49;0.75;;;0.50;;
13477;SDS011;12598;62.382;17.344;2022-10-16T04:47:52;0.60;;;0.40;;
13477;SDS011;12598;62.382;17.344;2022-10-16T04:48:53;1.50;;;0.85;;
13477;SDS011;12598;62.382;17.344;2022-10-16T04:49:55;0.98;;;0.60;;
13477;SDS011;12598;62.382;17.344;2022-10-16T04:50:58;0.70;;;0.60;;
13477;SDS011;12598;62.382;17.344;2022-10-16T04:52:00;0.80;;;0.80;;
13477;SDS011;12598;62.382;17.344;2022-10-16T04:53:02;1.75;;;0.55;;
13477;SDS011;12598;62.382;17.344;2022-10-16T04:54:04;0.70;;;0.50;;
13477;SDS011;12598;62.382;17.344;2022-10-16T04:55:06;0.95;;;0.52;;
13477;SDS011;12598;62.382;17.344;2022-10-16T04:56:08;0.88;;;0.60;;
13477;SDS011;12598;62.382;17.344;2022-10-16T04:57:10;0.88;;;0.75;;
13477;SDS011;12598;62.382;17.344;2022-10-16T04:58:12;1.42;;;0.77;;
13477;SDS011;12598;62.382;17.344;2022-10-16T04:59:14;0.68;;;0.68;;
13477;SDS011;12598;62.382;17.344;2022-10-16T05:00:16;0.65;;;0.57;;
13477;SDS011;12598;62.382;17.344;2022-10-16T05:01:18;0.85;;;0.60;;
13477;SDS011;12598;62.382;17.344;2022-10-16T05:02:20;1.25;;;0.40;;
13477;SDS011;12598;62.382;17.344;2022-10-16T05:03:21;0.93;;;0.57;;
13477;SDS011;12598;62.382;17.344;2022-10-16T05:04:23;1.08;;;0.50;;
13477;SDS011;12598;62.382;17.344;2022-10-16T05:05:25;1.40;;;0.40;;
13477;SDS011;12598;62.382;17.344;2022-10-16T05:06:27;0.93;;;0.60;;
13477;SDS011;12598;62.382;17.344;2022-10-16T05:07:28;1.40;;;0.40;;
13477;SDS011;12598;62.382;17.344;2022-10-16T05:08:30;1.40;;;0.65;;
13477;SDS011;12598;62.382;17.344;2022-10-16T05:09:32;0.70;;;0.50;;
13477;SDS011;12598;62.382;17.344;2022-10-16T05:10:34;0.50;;;0.45;;
13477;SDS011;12598;62.382;17.344;2022-10-16T05:11:36;0.93;;;0.52;;
13477;SDS011;12598;62.382;17.344;2022-10-16T05:12:37;1.02;;;0.65;;
13477;SDS011;12598;62.382;17.344;2022-10-16T05:13:39;1.10;;;0.50;;
13477;SDS011;12598;62.382;17.344;2022-10-16T05:14:41;0.68;;;0.47;;
13477;SDS011;12598;62.382;17.344;2022-10-16T05:15:46;0.98;;;0.40;;
13477;SDS011;12598;62.382;17.344;2022-10-16T05:16:49;0.85;;;0.47;;
13477;SDS011;12598;62.382;17.344;2022-10-16T05:17:52;0.70;;;0.55;;
13477;SDS011;12598;62.382;17.344;2022-10-16T05:18:55;0.95;;;0.60;;
13477;SDS011;12598;62.382;17.344;2022-10-16T05:20:17;0.50;;;0.40;;
13477;SDS011;12598;62.382;17.344;2022-10-16T05:21:19;1.10;;;0.40;;
13477;SDS011;12598;62.382;17.344;2022-10-16T05:22:21;0.63;;;0.52;;
13477;SDS011;12598;62.382;17.344;2022-10-16T05:23:23;0.68;;;0.45;;
13477;SDS011;12598;62.382;17.344;2022-10-16T05:24:24;0.60;;;0.30;;
13477;SDS011;12598;62.382;17.344;2022-10-16T05:25:26;1.40;;;0.70;;
13477;SDS011;12598;62.382;17.344;2022-10-16T05:26:28;1.05;;;0.47;;
13477;SDS011;12598;62.382;17.344;2022-10-16T05:27:30;2.85;;;0.65;;
13477;SDS011;12598;62.382;17.344;2022-10-16T05:28:31;1.00;;;0.45;;
13477;SDS011;12598;62.382;17.344;2022-10-16T05:29:33;1.25;;;0.50;;
13477;SDS011;12598;62.382;17.344;2022-10-16T05:30:37;0.95;;;0.82;;
13477;SDS011;12598;62.382;17.344;2022-10-16T05:31:39;0.98;;;0.55;;
13477;SDS011;12598;62.382;17.344;2022-10-16T05:32:40;1.00;;;0.40;;
13477;SDS011;12598;62.382;17.344;2022-10-16T05:33:42;1.80;;;0.60;;
13477;SDS011;12598;62.382;17.344;2022-10-16T05:34:45;1.27;;;0.45;;
13477;SDS011;12598;62.382;17.344;2022-10-16T05:35:47;1.83;;;0.68;;
13477;SDS011;12598;62.382;17.344;2022-10-16T05:36:48;0.93;;;0.55;;
13477;SDS011;12598;62.382;17.344;2022-10-16T05:37:51;1.02;;;0.50;;
13477;SDS011;12598;62.382;17.344;2022-10-16T05:38:53;1.58;;;0.70;;
13477;SDS011;12598;62.382;17.344;2022-10-16T05:39:55;0.68;;;0.40;;
13477;SDS011;12598;62.382;17.344;2022-10-16T05:40:57;0.63;;;0.40;;
13477;SDS011;12598;62.382;17.344;2022-10-16T05:41:59;0.45;;;0.32;;
13477;SDS011;12598;62.382;17.344;2022-10-16T05:43:01;1.42;;;0.60;;
13477;SDS011;12598;62.382;17.344;2022-10-16T05:44:06;0.63;;;0.40;;
13477;SDS011;12598;62.382;17.344;2022-10-16T05:45:08;0.60;;;0.40;;
13477;SDS011;12598;62.382;17.344;2022-10-16T05:46:12;0.65;;;0.30;;
13477;SDS011;12598;62.382;17.344;2022-10-16T05:47:14;1.67;;;0.90;;
13477;SDS011;12598;62.382;17.344;2022-10-16T05:48:15;1.08;;;0.60;;
13477;SDS011;12598;62.382;17.344;2022-10-16T05:49:17;1.23;;;0.50;;
13477;SDS011;12598;62.382;17.344;2022-10-16T05:50:19;0.95;;;0.52;;
13477;SDS011;12598;62.382;17.344;2022-10-16T05:51:21;1.27;;;0.55;;
13477;SDS011;12598;62.382;17.344;2022-10-16T05:52:22;0.63;;;0.40;;
13477;SDS011;12598;62.382;17.344;2022-10-16T05:53:24;1.40;;;0.68;;
13477;SDS011;12598;62.382;17.344;2022-10-16T05:54:26;0.73;;;0.40;;
13477;SDS011;12598;62.382;17.344;2022-10-16T05:55:28;0.50;;;0.32;;
13477;SDS011;12598;62.382;17.344;2022-10-16T05:56:30;0.40;;;0.30;;
13477;SDS011;12598;62.382;17.344;2022-10-16T05:57:32;0.32;;;0.32;;
13477;SDS011;12598;62.382;17.344;2022-10-16T05:58:34;1.08;;;0.50;;
13477;SDS011;12598;62.382;17.344;2022-10-16T05:59:37;1.17;;;0.50;;
13477;SDS011;12598;62.382;17.344;2022-10-16T06:00:39;0.65;;;0.60;;
13477;SDS011;12598;62.382;17.344;2022-10-16T06:01:41;0.50;;;0.50;;
13477;SDS011;12598;62.382;17.344;2022-10-16T06:02:43;2.53;;;0.60;;
13477;SDS011;12598;62.382;17.344;2022-10-16T06:03:44;0.60;;;0.60;;
13477;SDS011;12598;62.382;17.344;2022-10-16T06:04:46;0.88;;;0.57;;
13477;SDS011;12598;62.382;17.344;2022-10-16T06:05:48;0.70;;;0.70;;
13477;SDS011;12598;62.382;17.344;2022-10-16T06:06:50;1.80;;;0.65;;
13477;SDS011;12598;62.382;17.344;2022-10-16T06:07:52;0.60;;;0.60;;
13477;SDS011;12598;62.382;17.344;2022-10-16T06:08:54;1.58;;;0.60;;
13477;SDS011;12598;62.382;17.344;2022-10-16T06:09:57;0.55;;;0.40;;
13477;SDS011;12598;62.382;17.344;2022-10-16T06:11:02;0.80;;;0.55;;
13477;SDS011;12598;62.382;17.344;2022-10-16T06:12:05;0.68;;;0.45;;
13477;SDS011;12598;62.382;17.344;2022-10-16T06:13:07;0.70;;;0.60;;
13477;SDS011;12598;62.382;17.344;2022-10-16T06:14:09;0.52;;;0.50;;
13477;SDS011;12598;62.382;17.344;2022-10-16T06:15:11;0.70;;;0.50;;
13477;SDS011;12598;62.382;17.344;2022-10-16T06:16:13;0.50;;;0.40;;
13477;SDS011;12598;62.382;17.344;2022-10-16T06:17:14;1.65;;;0.50;;
13477;SDS011;12598;62.382;17.344;2022-10-16T06:18:16;1.40;;;0.40;;
13477;SDS011;12598;62.382;17.344;2022-10-16T06:19:18;1.15;;;0.60;;
13477;SDS011;12598;62.382;17.344;2022-10-16T06:20:20;0.65;;;0.38;;
13477;SDS011;12598;62.382;17.344;2022-10-16T06:21:25;0.40;;;0.40;;
13477;SDS011;12598;62.382;17.344;2022-10-16T06:22:28;1.15;;;0.50;;
13477;SDS011;12598;62.382;17.344;2022-10-16T06:23:30;0.88;;;0.60;;
13477;SDS011;12598;62.382;17.344;2022-10-16T06:24:32;0.65;;;0.43;;
13477;SDS011;12598;62.382;17.344;2022-10-16T06:25:33;0.32;;;0.32;;
13477;SDS011;12598;62.382;17.344;2022-10-16T06:26:35;0.50;;;0.40;;
13477;SDS011;12598;62.382;17.344;2022-10-16T06:27:39;0.70;;;0.63;;
13477;SDS011;12598;62.382;17.344;2022-10-16T06:28:41;0.65;;;0.60;;
13477;SDS011;12598;62.382;17.344;2022-10-16T06:29:43;0.47;;;0.30;;
13477;SDS011;12598;62.382;17.344;2022-10-16T06:30:46;0.63;;;0.38;;